Time;durP1;ratioP1;P1;durP2;ratioP2;P2;SDS_P1;SDS_P2;PMS_P1;PMS_P2;Temp;Humidity;BMP_temperature;BMP_pressure;BME280_temperature;BME280_humidity;BME280_pressure;Samples;Min_cycle;Max_cycle;Signal;HPM_P1;HPM_P2
2022/07/09 00:00:58;;;;;;;16.17;9.02;;;;;;;;;;5040091;28;20033;-80
2022/07/09 00:03:24;;;;;;;12.63;9.00;;;;;;;;;;5036045;28;20479;-80
2022/07/09 00:05:49;;;;;;;12.98;8.32;;;;;;;;;;5045878;28;20044;-80
2022/07/09 00:08:15;;;;;;;13.23;8.50;;;;;;;;;;5036075;28;20057;-81
2022/07/09 00:10:41;;;;;;;14.55;8.50;;;;;;;;;;5033559;28;20504;-80
2022/07/09 00:13:07;;;;;;;13.45;8.70;;;;;;;;;;5045626;28;20035;-80
2022/07/09 00:15:32;;;;;;;12.80;8.13;;;;;;;;;;5042948;28;20539;-81
2022/07/09 00:17:58;;;;;;;13.70;8.20;;;;;;;;;;5050205;28;20028;-81
2022/07/09 00:20:23;;;;;;;14.82;8.43;;;;;;;;;;5043638;28;20029;-82
2022/07/09 00:22:49;;;;;;;12.48;8.30;;;;;;;;;;5034255;28;20038;-81
2022/07/09 00:25:14;;;;;;;16.02;7.68;;;;;;;;;;5038668;28;20035;-81
2022/07/09 00:27:40;;;;;;;11.80;7.93;;;;;;;;;;5040127;28;20044;-81
2022/07/09 00:30:05;;;;;;;11.88;7.07;;;;;;;;;;5039164;28;20064;-80
2022/07/09 00:32:31;;;;;;;11.00;7.75;;;;;;;;;;5051484;28;20445;-81
2022/07/09 00:34:56;;;;;;;11.93;7.50;;;;;;;;;;5052712;28;20058;-82
2022/07/09 00:37:22;;;;;;;13.57;7.65;;;;;;;;;;5052007;28;20033;-81
2022/07/09 00:39:47;;;;;;;11.45;7.93;;;;;;;;;;5052283;28;20028;-81
2022/07/09 00:42:12;;;;;;;12.60;7.38;;;;;;;;;;5034202;28;20048;-81
2022/07/09 00:44:38;;;;;;;8.95;6.95;;;;;;;;;;5032592;28;20035;-81
2022/07/09 00:47:04;;;;;;;10.75;7.32;;;;;;;;;;5031402;28;20040;-80
2022/07/09 00:49:29;;;;;;;9.55;7.05;;;;;;;;;;5031616;28;20022;-81
2022/07/09 00:51:58;;;;;;;14.73;7.90;;;;;;;;;;5033388;28;20045;-80
2022/07/09 00:54:23;;;;;;;9.30;7.35;;;;;;;;;;5033608;28;20025;-80
2022/07/09 00:56:49;;;;;;;12.48;7.40;;;;;;;;;;5033438;28;20021;-80
2022/07/09 00:59:14;;;;;;;12.00;7.40;;;;;;;;;;5032885;28;20427;-81
2022/07/09 01:01:40;;;;;;;11.82;8.18;;;;;;;;;;5032349;28;20364;-81
2022/07/09 01:04:06;;;;;;;12.98;7.25;;;;;;;;;;5032714;28;20545;-80
2022/07/09 01:06:31;;;;;;;9.13;7.18;;;;;;;;;;5031188;28;20120;-81
2022/07/09 01:08:56;;;;;;;9.77;6.88;;;;;;;;;;5014614;28;20136;-80
2022/07/09 01:11:22;;;;;;;13.80;7.80;;;;;;;;;;5030999;28;20064;-80
2022/07/09 01:13:47;;;;;;;11.00;7.20;;;;;;;;;;5031310;28;20530;-80
2022/07/09 01:16:14;;;;;;;12.32;7.53;;;;;;;;;;5037031;28;20498;-80
2022/07/09 01:18:40;;;;;;;11.10;7.88;;;;;;;;;;5039405;28;20107;-81
2022/07/09 01:21:05;;;;;;;10.75;6.70;;;;;;;;;;5031461;28;20492;-82
2022/07/09 01:23:31;;;;;;;12.57;8.32;;;;;;;;;;5032395;28;20034;-79
2022/07/09 01:25:56;;;;;;;11.35;7.78;;;;;;;;;;5033040;28;20029;-80
2022/07/09 01:28:22;;;;;;;11.85;7.68;;;;;;;;;;5031551;28;20040;-80
2022/07/09 01:30:47;;;;;;;13.95;7.90;;;;;;;;;;5032208;28;20037;-81
2022/07/09 01:33:13;;;;;;;12.45;7.20;;;;;;;;;;5031560;28;20473;-80
2022/07/09 01:35:39;;;;;;;11.18;7.07;;;;;;;;;;5032237;28;20746;-80
2022/07/09 01:38:04;;;;;;;11.48;6.40;;;;;;;;;;5032616;28;20033;-79
2022/07/09 01:40:30;;;;;;;11.38;6.90;;;;;;;;;;5032484;28;20492;-80
2022/07/09 01:42:55;;;;;;;8.45;6.47;;;;;;;;;;5011512;28;20058;-79
2022/07/09 01:45:21;;;;;;;8.70;6.40;;;;;;;;;;5030895;28;20041;-81
2022/07/09 01:47:46;;;;;;;9.98;5.93;;;;;;;;;;5030846;28;20563;-80
2022/07/09 01:50:12;;;;;;;8.13;6.63;;;;;;;;;;5011330;28;20099;-80
2022/07/09 01:52:37;;;;;;;9.80;6.07;;;;;;;;;;5024410;28;20021;-80
2022/07/09 01:55:03;;;;;;;7.90;5.90;;;;;;;;;;5030999;28;20042;-80
2022/07/09 01:57:28;;;;;;;10.60;6.18;;;;;;;;;;5032611;28;20026;-80
2022/07/09 01:59:54;;;;;;;8.23;5.30;;;;;;;;;;5034754;28;20026;-81
2022/07/09 02:02:19;;;;;;;8.88;5.22;;;;;;;;;;5036378;28;20487;-80
2022/07/09 02:04:45;;;;;;;8.98;5.78;;;;;;;;;;5036974;28;20033;-80
2022/07/09 02:07:11;;;;;;;8.35;5.65;;;;;;;;;;5034987;28;20107;-80
2022/07/09 02:09:37;;;;;;;8.63;5.80;;;;;;;;;;5036471;28;20184;-81
2022/07/09 02:12:02;;;;;;;8.30;5.38;;;;;;;;;;5037002;28;20786;-80
2022/07/09 02:14:28;;;;;;;7.43;5.88;;;;;;;;;;5036379;28;20049;-81
2022/07/09 02:16:54;;;;;;;8.73;5.10;;;;;;;;;;5035776;28;20480;-80
2022/07/09 02:19:19;;;;;;;7.68;4.80;;;;;;;;;;5050627;28;20033;-80
2022/07/09 02:21:45;;;;;;;6.50;4.47;;;;;;;;;;5055304;28;20040;-80
2022/07/09 02:24:10;;;;;;;8.38;4.50;;;;;;;;;;5053420;28;20040;-80
2022/07/09 02:26:36;;;;;;;6.88;4.18;;;;;;;;;;5053507;28;20087;-80
2022/07/09 02:29:02;;;;;;;8.88;4.40;;;;;;;;;;5053133;28;20033;-81
2022/07/09 02:31:27;;;;;;;6.20;4.22;;;;;;;;;;5053529;28;20032;-80
2022/07/09 02:33:53;;;;;;;8.18;4.18;;;;;;;;;;5053914;28;20063;-81
2022/07/09 02:36:18;;;;;;;5.85;3.70;;;;;;;;;;5053746;28;20108;-81
2022/07/09 02:38:44;;;;;;;7.10;3.80;;;;;;;;;;5049949;28;20492;-80
2022/07/09 02:41:09;;;;;;;8.40;4.05;;;;;;;;;;5035640;28;20021;-80
2022/07/09 02:43:35;;;;;;;5.80;3.92;;;;;;;;;;5034360;28;20038;-81
2022/07/09 02:46:01;;;;;;;5.18;4.05;;;;;;;;;;5035408;28;20120;-80
2022/07/09 02:48:26;;;;;;;7.72;4.20;;;;;;;;;;5035416;28;20070;-81
2022/07/09 02:50:52;;;;;;;6.63;4.22;;;;;;;;;;5033591;28;20029;-80
2022/07/09 02:53:18;;;;;;;8.60;4.10;;;;;;;;;;5034944;28;20048;-80
2022/07/09 02:55:43;;;;;;;10.27;3.90;;;;;;;;;;5035477;28;20022;-81
2022/07/09 02:58:10;;;;;;;7.15;3.95;;;;;;;;;;5033991;28;20374;-81
2022/07/09 03:00:35;;;;;;;6.63;4.38;;;;;;;;;;5033703;28;20060;-81
2022/07/09 03:03:01;;;;;;;6.40;3.85;;;;;;;;;;5035429;28;20037;-81
2022/07/09 03:05:26;;;;;;;8.10;4.60;;;;;;;;;;5035418;28;20025;-80
2022/07/09 03:07:52;;;;;;;8.30;4.25;;;;;;;;;;5034614;28;20033;-80
2022/07/09 03:10:17;;;;;;;7.30;4.70;;;;;;;;;;5034487;28;20037;-80
2022/07/09 03:12:43;;;;;;;8.07;4.82;;;;;;;;;;5035682;28;20045;-80
2022/07/09 03:15:08;;;;;;;7.60;4.55;;;;;;;;;;5035163;28;20029;-80
2022/07/09 03:17:34;;;;;;;6.70;3.97;;;;;;;;;;5049849;28;20035;-81
2022/07/09 03:20:00;;;;;;;9.35;4.35;;;;;;;;;;5053903;28;20025;-81
2022/07/09 03:22:25;;;;;;;7.45;4.43;;;;;;;;;;5052605;28;20094;-81
2022/07/09 03:24:51;;;;;;;12.55;4.78;;;;;;;;;;5053591;28;20066;-79
2022/07/09 03:27:16;;;;;;;10.50;4.75;;;;;;;;;;5054010;28;20689;-81
2022/07/09 03:29:42;;;;;;;9.23;5.15;;;;;;;;;;5045122;28;20020;-80
2022/07/09 03:32:07;;;;;;;11.63;5.85;;;;;;;;;;5046877;28;20040;-81
2022/07/09 03:34:33;;;;;;;10.73;5.75;;;;;;;;;;5034114;28;20377;-79
2022/07/09 03:36:59;;;;;;;10.07;4.97;;;;;;;;;;5032992;28;20044;-80
2022/07/09 03:39:24;;;;;;;8.23;5.38;;;;;;;;;;5034835;28;20033;-80
2022/07/09 03:41:50;;;;;;;8.90;4.93;;;;;;;;;;5035565;28;20048;-80
2022/07/09 03:44:15;;;;;;;7.40;4.55;;;;;;;;;;5034583;28;20520;-81
2022/07/09 03:46:41;;;;;;;8.77;5.22;;;;;;;;;;5044041;28;20033;-80
2022/07/09 03:49:06;;;;;;;8.75;4.70;;;;;;;;;;5049027;28;20031;-81
2022/07/09 03:51:32;;;;;;;8.35;4.85;;;;;;;;;;5048192;28;20060;-81
2022/07/09 03:53:57;;;;;;;7.05;4.60;;;;;;;;;;5052071;28;20029;-80
2022/07/09 03:56:23;;;;;;;10.05;4.65;;;;;;;;;;5045062;28;20033;-81
2022/07/09 03:58:48;;;;;;;5.53;4.18;;;;;;;;;;5047897;28;20025;-81
2022/07/09 04:01:14;;;;;;;7.35;4.30;;;;;;;;;;5045233;28;20029;-80
2022/07/09 04:03:40;;;;;;;6.85;4.05;;;;;;;;;;5051278;28;20111;-80
2022/07/09 04:06:05;;;;;;;6.63;4.13;;;;;;;;;;5050502;28;20056;-81
2022/07/09 04:08:31;;;;;;;6.18;3.80;;;;;;;;;;5045227;28;20053;-80
2022/07/09 04:10:56;;;;;;;6.60;3.97;;;;;;;;;;5029331;28;20045;-81
2022/07/09 04:13:22;;;;;;;6.63;3.40;;;;;;;;;;5051244;28;20568;-81
2022/07/09 04:15:47;;;;;;;5.95;3.25;;;;;;;;;;5050823;28;20613;-80
2022/07/09 04:18:14;;;;;;;5.22;3.40;;;;;;;;;;5051492;28;20480;-80
2022/07/09 04:20:39;;;;;;;4.65;3.33;;;;;;;;;;5047784;28;20021;-80
2022/07/09 04:23:05;;;;;;;7.72;3.65;;;;;;;;;;5050487;28;20047;-83
2022/07/09 04:25:30;;;;;;;8.13;3.72;;;;;;;;;;5051490;28;20545;-81
2022/07/09 04:27:56;;;;;;;7.40;3.42;;;;;;;;;;5048010;28;20067;-81
2022/07/09 04:30:21;;;;;;;4.93;3.13;;;;;;;;;;5048869;28;20029;-82
2022/07/09 04:32:47;;;;;;;10.60;4.47;;;;;;;;;;5049878;28;20086;-83
2022/07/09 04:35:12;;;;;;;7.97;4.13;;;;;;;;;;5044181;28;20460;-81
2022/07/09 04:37:38;;;;;;;7.70;4.22;;;;;;;;;;5051173;28;20823;-81
2022/07/09 04:40:04;;;;;;;10.02;4.25;;;;;;;;;;5051302;28;20032;-81
2022/07/09 04:42:29;;;;;;;6.55;4.50;;;;;;;;;;5030373;28;20027;-81
2022/07/09 04:44:57;;;;;;;8.10;4.32;;;;;;;;;;5043787;28;20029;-81
2022/07/09 04:47:23;;;;;;;6.95;4.60;;;;;;;;;;5043167;28;20009;-81
2022/07/09 04:49:48;;;;;;;8.23;4.30;;;;;;;;;;5050593;28;20373;-81
2022/07/09 04:52:17;;;;;;;9.45;4.20;;;;;;;;;;5049820;28;20025;-81
2022/07/09 04:54:43;;;;;;;6.40;4.40;;;;;;;;;;5050025;28;20048;-80
2022/07/09 04:57:08;;;;;;;7.70;4.50;;;;;;;;;;5047633;28;20455;-82
2022/07/09 04:59:34;;;;;;;8.35;4.40;;;;;;;;;;5046189;28;20400;-82
2022/07/09 05:01:59;;;;;;;9.90;4.70;;;;;;;;;;5051955;28;20025;-81
2022/07/09 05:04:26;;;;;;;7.93;4.07;;;;;;;;;;5050195;28;20170;-80
2022/07/09 05:06:51;;;;;;;5.05;3.55;;;;;;;;;;5050498;28;20107;-82
2022/07/09 05:09:17;;;;;;;7.45;3.80;;;;;;;;;;5038267;28;20550;-82
2022/07/09 05:11:42;;;;;;;7.60;3.72;;;;;;;;;;5035780;28;20037;-81
2022/07/09 05:14:08;;;;;;;6.97;4.05;;;;;;;;;;5039235;28;20032;-82
2022/07/09 05:16:34;;;;;;;9.30;4.13;;;;;;;;;;5040654;28;20031;-81
2022/07/09 05:18:59;;;;;;;8.57;3.38;;;;;;;;;;5052889;28;20035;-80
2022/07/09 05:21:25;;;;;;;10.35;4.00;;;;;;;;;;5051845;28;20017;-79
2022/07/09 05:23:50;;;;;;;12.77;3.58;;;;;;;;;;5038218;28;20396;-81
2022/07/09 05:26:16;;;;;;;8.35;4.20;;;;;;;;;;5035091;28;20071;-80
2022/07/09 05:28:41;;;;;;;6.47;3.72;;;;;;;;;;5033336;28;20400;-78
2022/07/09 05:31:07;;;;;;;7.03;3.40;;;;;;;;;;5042158;28;20021;-81
2022/07/09 05:33:32;;;;;;;5.70;4.00;;;;;;;;;;5040068;28;20029;-79
2022/07/09 05:35:58;;;;;;;10.05;3.75;;;;;;;;;;5053970;28;20025;-80
2022/07/09 05:38:23;;;;;;;7.95;3.70;;;;;;;;;;5053383;28;20063;-80
2022/07/09 05:40:49;;;;;;;7.40;3.05;;;;;;;;;;5051764;28;20047;-80
2022/07/09 05:43:14;;;;;;;6.35;3.97;;;;;;;;;;5052660;28;20040;-80
2022/07/09 05:45:40;;;;;;;9.00;4.93;;;;;;;;;;5053656;28;20032;-80
2022/07/09 05:48:05;;;;;;;6.38;4.05;;;;;;;;;;5048167;28;20037;-79
2022/07/09 05:50:31;;;;;;;6.78;4.10;;;;;;;;;;5037952;28;20041;-79
2022/07/09 05:52:56;;;;;;;6.57;3.95;;;;;;;;;;5047283;28;20487;-79
2022/07/09 05:55:21;;;;;;;7.82;3.80;;;;;;;;;;5041001;28;20024;-80
2022/07/09 05:57:47;;;;;;;9.13;5.93;;;;;;;;;;5039884;28;20029;-80
2022/07/09 06:00:13;;;;;;;7.35;4.50;;;;;;;;;;5032602;28;20049;-79
2022/07/09 06:02:38;;;;;;;8.25;4.57;;;;;;;;;;5032989;28;20496;-80
2022/07/09 06:05:04;;;;;;;6.57;4.55;;;;;;;;;;5039044;28;20491;-80
2022/07/09 06:07:29;;;;;;;8.00;4.90;;;;;;;;;;5052536;28;20033;-79
2022/07/09 06:09:55;;;;;;;7.40;5.03;;;;;;;;;;5051621;28;20152;-79
2022/07/09 06:12:20;;;;;;;7.20;4.50;;;;;;;;;;5052312;28;20044;-79
2022/07/09 06:14:46;;;;;;;10.70;7.50;;;;;;;;;;5045159;28;20021;-78
2022/07/09 06:17:11;;;;;;;9.40;6.60;;;;;;;;;;5031595;28;20037;-82
2022/07/09 06:19:37;;;;;;;9.75;6.22;;;;;;;;;;5032993;28;20480;-81
2022/07/09 06:22:02;;;;;;;9.27;4.75;;;;;;;;;;5033179;28;20037;-79
2022/07/09 06:24:28;;;;;;;10.15;5.40;;;;;;;;;;5033221;28;20032;-81
2022/07/09 06:26:53;;;;;;;8.00;5.15;;;;;;;;;;5033840;28;20045;-81
2022/07/09 06:29:19;;;;;;;7.03;5.07;;;;;;;;;;5033412;28;20432;-80
2022/07/09 06:31:45;;;;;;;6.30;4.90;;;;;;;;;;5031076;28;20026;-80
2022/07/09 06:34:11;;;;;;;7.07;4.43;;;;;;;;;;5033583;28;20029;-79
2022/07/09 06:36:37;;;;;;;8.90;4.85;;;;;;;;;;5015035;28;20089;-80
2022/07/09 06:41:47;;;;;;;7.32;5.10;;;;;;;;;;5033701;28;20039;-79
2022/07/09 06:44:12;;;;;;;10.85;8.45;;;;;;;;;;5033240;28;20450;-78
2022/07/09 06:46:38;;;;;;;8.57;6.00;;;;;;;;;;5035651;28;20029;-83
2022/07/09 06:49:04;;;;;;;8.43;5.68;;;;;;;;;;5015722;28;20037;-83
2022/07/09 06:51:29;;;;;;;8.55;5.50;;;;;;;;;;5031989;28;20095;-78
2022/07/09 06:53:55;;;;;;;9.98;6.00;;;;;;;;;;5037746;28;20064;-84
2022/07/09 06:56:21;;;;;;;7.50;4.70;;;;;;;;;;5020826;28;20056;-86
2022/07/09 06:58:46;;;;;;;10.05;5.25;;;;;;;;;;5037666;28;20022;-83
2022/07/09 07:01:11;;;;;;;7.20;5.00;;;;;;;;;;5038774;28;20128;-84
2022/07/09 07:03:37;;;;;;;7.47;5.05;;;;;;;;;;5036264;28;20021;-85
2022/07/09 07:06:02;;;;;;;7.43;5.07;;;;;;;;;;5038548;28;20666;-83
2022/07/09 07:08:28;;;;;;;7.95;4.97;;;;;;;;;;5048690;28;20053;-82
2022/07/09 07:10:54;;;;;;;8.50;5.10;;;;;;;;;;5037528;28;20504;-84
2022/07/09 07:13:19;;;;;;;11.73;4.25;;;;;;;;;;5019127;28;20037;-84
2022/07/09 07:15:48;;;;;;;5.80;4.18;;;;;;;;;;5035125;28;20063;-85
2022/07/09 07:18:15;;;;;;;5.18;3.92;;;;;;;;;;5055306;28;20089;-84
2022/07/09 07:20:40;;;;;;;6.43;4.13;;;;;;;;;;5037429;28;20056;-84
2022/07/09 07:23:06;;;;;;;6.50;4.13;;;;;;;;;;5054677;28;20036;-84
2022/07/09 07:25:31;;;;;;;6.13;3.90;;;;;;;;;;5039589;28;20022;-83
2022/07/09 07:27:58;;;;;;;6.82;3.58;;;;;;;;;;5015187;28;20504;-85
2022/07/09 07:30:23;;;;;;;5.63;3.13;;;;;;;;;;5035104;28;20037;-85
2022/07/09 07:32:49;;;;;;;6.70;3.20;;;;;;;;;;5034384;28;20376;-84
2022/07/09 07:35:14;;;;;;;5.65;3.05;;;;;;;;;;5048466;28;20036;-84
2022/07/09 07:37:39;;;;;;;5.35;3.10;;;;;;;;;;5046893;28;20440;-85
2022/07/09 07:40:06;;;;;;;4.88;3.17;;;;;;;;;;5048474;28;20033;-85
2022/07/09 07:42:31;;;;;;;6.35;3.30;;;;;;;;;;5034330;28;20087;-83
2022/07/09 07:44:57;;;;;;;7.32;2.78;;;;;;;;;;5034348;28;20383;-84
2022/07/09 07:47:23;;;;;;;5.28;3.17;;;;;;;;;;5034552;28;20048;-84
2022/07/09 07:49:48;;;;;;;4.47;3.35;;;;;;;;;;5015603;28;20029;-83
2022/07/09 07:52:14;;;;;;;4.25;3.40;;;;;;;;;;5014376;28;20037;-85
2022/07/09 07:54:39;;;;;;;4.50;3.20;;;;;;;;;;5030874;28;20035;-86
2022/07/09 07:57:05;;;;;;;5.50;3.35;;;;;;;;;;5001518;28;20457;-86
2022/07/09 07:59:30;;;;;;;6.38;3.25;;;;;;;;;;5033947;28;20021;-88
2022/07/09 08:01:56;;;;;;;4.68;3.15;;;;;;;;;;5014618;28;20038;-84
2022/07/09 08:04:22;;;;;;;4.35;2.83;;;;;;;;;;5018299;28;20119;-87
2022/07/09 08:06:47;;;;;;;4.80;3.20;;;;;;;;;;5014883;28;20038;-85
2022/07/09 08:09:12;;;;;;;6.80;3.08;;;;;;;;;;5030884;28;20053;-84
2022/07/09 08:11:38;;;;;;;4.60;3.00;;;;;;;;;;5017493;28;20041;-86
2022/07/09 08:14:05;;;;;;;6.95;4.60;;;;;;;;;;5035252;28;20025;-86
2022/07/09 08:16:30;;;;;;;6.28;3.17;;;;;;;;;;4997632;28;20029;-81
2022/07/09 08:18:55;;;;;;;6.90;2.90;;;;;;;;;;5027140;28;20080;-83
2022/07/09 08:21:21;;;;;;;5.50;2.30;;;;;;;;;;5012865;28;20038;-80
2022/07/09 08:23:56;;;;;;;4.38;2.20;;;;;;;;;;5027619;28;20029;-80
2022/07/09 08:26:25;;;;;;;4.40;2.15;;;;;;;;;;5036841;28;20063;-82
2022/07/09 08:28:50;;;;;;;4.25;2.10;;;;;;;;;;5034710;28;20504;-81
2022/07/09 08:31:16;;;;;;;3.97;2.42;;;;;;;;;;5032241;28;20061;-82
2022/07/09 08:33:41;;;;;;;3.42;2.10;;;;;;;;;;5034158;28;20068;-82
2022/07/09 08:36:07;;;;;;;2.63;1.70;;;;;;;;;;5033130;28;20152;-82
2022/07/09 08:38:33;;;;;;;4.25;1.60;;;;;;;;;;5015353;28;20061;-83
2022/07/09 08:40:59;;;;;;;4.05;1.90;;;;;;;;;;5035531;28;20469;-84
2022/07/09 08:43:26;;;;;;;3.63;1.80;;;;;;;;;;5045294;28;20025;-82
2022/07/09 08:45:52;;;;;;;3.58;1.88;;;;;;;;;;5037735;28;20040;-84
2022/07/09 08:48:18;;;;;;;4.25;2.47;;;;;;;;;;5042282;28;20025;-82
2022/07/09 08:50:44;;;;;;;3.50;2.10;;;;;;;;;;5037213;28;20091;-82
2022/07/09 08:53:09;;;;;;;5.10;1.88;;;;;;;;;;5024795;28;20025;-83
2022/07/09 08:55:36;;;;;;;3.22;1.63;;;;;;;;;;5037884;28;20033;-84
2022/07/09 08:58:01;;;;;;;3.10;1.60;;;;;;;;;;5041316;28;20380;-83
2022/07/09 09:00:27;;;;;;;3.83;1.85;;;;;;;;;;5037932;28;20025;-83
2022/07/09 09:02:52;;;;;;;5.22;2.00;;;;;;;;;;5008193;28;20100;-81
2022/07/09 09:05:18;;;;;;;3.20;1.65;;;;;;;;;;5037383;28;20040;-83
2022/07/09 09:07:43;;;;;;;5.50;2.03;;;;;;;;;;5031303;28;20538;-83
2022/07/09 09:10:19;;;;;;;3.60;1.95;;;;;;;;;;5036745;28;20045;-81
2022/07/09 09:12:45;;;;;;;4.55;2.10;;;;;;;;;;5033975;28;20541;-82
2022/07/09 09:15:10;;;;;;;3.60;2.00;;;;;;;;;;5037985;28;20049;-83
2022/07/09 09:17:42;;;;;;;5.82;2.85;;;;;;;;;;5046701;28;20424;-85
2022/07/09 09:20:11;;;;;;;3.45;2.22;;;;;;;;;;5051295;28;20029;-85
2022/07/09 09:22:43;;;;;;;3.63;2.25;;;;;;;;;;5046695;28;20120;-82
2022/07/09 09:25:14;;;;;;;5.00;2.47;;;;;;;;;;5031888;28;20045;-85
2022/07/09 09:27:40;;;;;;;4.18;2.20;;;;;;;;;;5032526;28;20447;-84
2022/07/09 09:30:09;;;;;;;6.63;2.40;;;;;;;;;;5043407;28;20025;-82
2022/07/09 09:32:34;;;;;;;4.75;2.15;;;;;;;;;;5050152;28;20033;-83
2022/07/09 09:35:02;;;;;;;4.40;2.13;;;;;;;;;;5033662;28;20017;-82
2022/07/09 09:37:30;;;;;;;5.82;2.13;;;;;;;;;;5050305;28;20081;-82
2022/07/09 09:39:55;;;;;;;5.47;1.90;;;;;;;;;;5033430;28;20037;-84
2022/07/09 09:42:24;;;;;;;8.55;2.00;;;;;;;;;;5049356;28;20404;-84
2022/07/09 09:44:50;;;;;;;3.65;1.90;;;;;;;;;;5050103;28;20566;-83
2022/07/09 09:47:16;;;;;;;5.57;1.90;;;;;;;;;;5049183;28;20087;-84
2022/07/09 09:49:42;;;;;;;2.92;1.60;;;;;;;;;;5050414;28;20125;-83
2022/07/09 09:52:08;;;;;;;3.85;1.52;;;;;;;;;;5051165;28;20072;-84
2022/07/09 09:54:34;;;;;;;3.30;1.52;;;;;;;;;;5050697;28;20032;-83
2022/07/09 09:57:02;;;;;;;3.45;1.50;;;;;;;;;;5025563;28;20033;-82
2022/07/09 09:59:28;;;;;;;4.38;1.50;;;;;;;;;;5049750;28;20082;-82
2022/07/09 10:01:53;;;;;;;3.22;1.60;;;;;;;;;;5033602;28;20040;-82
2022/07/09 10:04:21;;;;;;;4.63;1.55;;;;;;;;;;5049474;28;20520;-83
2022/07/09 10:06:46;;;;;;;3.80;1.90;;;;;;;;;;5049760;28;20029;-84
2022/07/09 10:09:12;;;;;;;4.88;2.40;;;;;;;;;;5032561;28;20045;-81
2022/07/09 10:11:45;;;;;;;2.90;1.75;;;;;;;;;;5043957;28;20064;-82
2022/07/09 10:14:18;;;;;;;3.78;1.60;;;;;;;;;;5031208;28;20437;-82
2022/07/09 10:16:43;;;;;;;3.45;1.70;;;;;;;;;;5022069;28;20032;-82
2022/07/09 10:19:09;;;;;;;2.88;1.42;;;;;;;;;;5048723;28;20032;-83
2022/07/09 10:21:35;;;;;;;3.10;1.73;;;;;;;;;;5041801;28;20098;-84
2022/07/09 10:24:01;;;;;;;3.25;1.45;;;;;;;;;;5053758;28;20113;-83
2022/07/09 10:26:42;;;;;;;3.40;1.90;;;;;;;;;;5046437;28;20069;-81
2022/07/09 10:29:24;;;;;;;2.45;1.63;;;;;;;;;;5039088;28;20033;-81
2022/07/09 10:31:50;;;;;;;2.45;1.38;;;;;;;;;;5054972;28;20086;-82
2022/07/09 10:34:21;;;;;;;5.55;1.42;;;;;;;;;;5034813;28;20033;-83
2022/07/09 10:36:56;;;;;;;2.63;1.50;;;;;;;;;;5036016;28;20056;-83
2022/07/09 10:39:22;;;;;;;;;;;;;;;;;;5036105;28;20029;-84
2022/07/09 10:41:47;;;;;;;;;;;;;;;;;;5035114;28;20426;-82
2022/07/09 10:44:12;;;;;;;2.03;1.40;;;;;;;;;;5035508;28;19939;-83
2022/07/09 10:46:38;;;;;;;3.42;1.30;;;;;;;;;;5034631;28;20084;-82
2022/07/09 10:49:04;;;;;;;1.70;1.20;;;;;;;;;;5035268;28;20396;-82
2022/07/09 10:51:30;;;;;;;2.75;1.60;;;;;;;;;;5035864;28;20028;-82
2022/07/09 10:53:55;;;;;;;2.88;1.40;;;;;;;;;;5035841;28;20045;-83
2022/07/09 10:56:21;;;;;;;4.13;1.50;;;;;;;;;;5035837;28;20072;-84
2022/07/09 10:58:47;;;;;;;1.70;1.27;;;;;;;;;;5034770;28;20123;-84
2022/07/09 11:01:17;;;;;;;2.28;1.38;;;;;;;;;;5034720;28;20391;-83
2022/07/09 11:03:42;;;;;;;3.45;1.48;;;;;;;;;;5035049;28;20041;-83
2022/07/09 11:06:08;;;;;;;4.15;2.40;;;;;;;;;;5034128;28;20032;-82
2022/07/09 11:08:34;;;;;;;4.50;1.77;;;;;;;;;;5035471;28;20061;-82
2022/07/09 11:10:59;;;;;;;2.92;1.65;;;;;;;;;;5036242;28;20522;-83
2022/07/09 11:13:25;;;;;;;3.90;1.80;;;;;;;;;;5014269;28;20046;-83
2022/07/09 11:15:57;;;;;;;11.02;1.90;;;;;;;;;;5032362;28;20018;-83
2022/07/09 11:18:25;;;;;;;3.40;1.50;;;;;;;;;;5053208;28;20039;-83
2022/07/09 11:20:50;;;;;;;4.32;1.67;;;;;;;;;;5052773;28;20035;-82
2022/07/09 11:23:16;;;;;;;2.55;1.50;;;;;;;;;;5053301;28;20124;-82
2022/07/09 11:25:46;;;;;;;2.97;1.50;;;;;;;;;;5053728;28;20033;-82
2022/07/09 11:28:24;;;;;;;5.07;1.50;;;;;;;;;;5054007;28;20037;-83
2022/07/09 11:30:59;;;;;;;4.72;1.42;;;;;;;;;;5053601;28;20131;-83
2022/07/09 11:33:25;;;;;;;3.30;1.52;;;;;;;;;;5051940;28;20037;-84
2022/07/09 11:35:50;;;;;;;5.07;1.50;;;;;;;;;;5053676;28;20032;-84
2022/07/09 11:38:16;;;;;;;3.85;1.80;;;;;;;;;;5053509;28;20109;-84
2022/07/09 11:40:41;;;;;;;4.07;1.90;;;;;;;;;;5052406;28;20025;-83
2022/07/09 11:43:14;;;;;;;3.10;1.60;;;;;;;;;;5040376;28;20037;-84
2022/07/09 11:45:40;;;;;;;3.13;1.45;;;;;;;;;;5036894;28;20392;-83
2022/07/09 11:48:06;;;;;;;2.70;1.60;;;;;;;;;;5046345;28;20032;-84
2022/07/09 11:50:32;;;;;;;2.70;1.40;;;;;;;;;;5034748;28;20487;-83
2022/07/09 11:52:57;;;;;;;3.67;1.60;;;;;;;;;;5053091;28;20078;-83
2022/07/09 11:55:34;;;;;;;4.40;1.80;;;;;;;;;;5045050;28;20033;-85
2022/07/09 11:58:05;;;;;;;3.85;1.80;;;;;;;;;;5049209;28;20392;-82
2022/07/09 12:00:32;;;;;;;3.10;1.70;;;;;;;;;;5052489;28;20407;-83
2022/07/09 12:02:59;;;;;;;3.15;1.63;;;;;;;;;;5052014;28;20112;-83
2022/07/09 12:05:32;;;;;;;3.80;1.80;;;;;;;;;;5051695;28;20025;-83
2022/07/09 12:07:58;;;;;;;2.78;2.00;;;;;;;;;;5052374;28;20708;-83
2022/07/09 12:10:32;;;;;;;4.72;1.80;;;;;;;;;;5053183;28;20037;-83
2022/07/09 12:12:57;;;;;;;5.80;2.17;;;;;;;;;;5035392;28;20041;-82
2022/07/09 12:15:23;;;;;;;3.47;2.10;;;;;;;;;;5040276;28;20135;-83
2022/07/09 12:17:52;;;;;;;5.63;2.17;;;;;;;;;;5045569;28;20112;-83
2022/07/09 12:20:18;;;;;;;3.13;2.30;;;;;;;;;;5033756;28;20046;-83
2022/07/09 12:22:44;;;;;;;3.75;1.67;;;;;;;;;;5038766;28;20080;-83
2022/07/09 12:25:09;;;;;;;4.45;1.95;;;;;;;;;;5035211;28;20031;-82
2022/07/09 12:27:35;;;;;;;3.85;2.78;;;;;;;;;;5051426;28;20048;-82
2022/07/09 12:30:00;;;;;;;3.28;1.80;;;;;;;;;;5052898;28;20051;-82
2022/07/09 12:32:26;;;;;;;2.90;2.08;;;;;;;;;;5046632;28;20100;-83
2022/07/09 12:34:51;;;;;;;5.28;2.03;;;;;;;;;;5043451;28;20537;-82
2022/07/09 12:37:17;;;;;;;2.85;1.75;;;;;;;;;;5039755;28;20054;-84
2022/07/09 12:39:42;;;;;;;2.97;1.92;;;;;;;;;;5051349;28;20543;-81
2022/07/09 12:42:08;;;;;;;3.40;2.28;;;;;;;;;;5032843;28;20029;-83
2022/07/09 12:44:33;;;;;;;4.60;2.20;;;;;;;;;;5032583;28;20025;-85
2022/07/09 12:46:59;;;;;;;4.43;2.03;;;;;;;;;;5033161;28;20041;-84
2022/07/09 12:49:24;;;;;;;5.45;2.05;;;;;;;;;;5012179;28;20037;-83
2022/07/09 12:51:50;;;;;;;3.10;1.70;;;;;;;;;;5031483;28;20029;-84
2022/07/09 12:54:15;;;;;;;4.53;2.28;;;;;;;;;;5031871;28;20033;-83
2022/07/09 12:56:41;;;;;;;2.70;2.00;;;;;;;;;;5032971;28;20049;-84
2022/07/09 12:59:06;;;;;;;4.55;2.10;;;;;;;;;;5032381;28;20036;-84
2022/07/09 13:01:32;;;;;;;3.15;1.90;;;;;;;;;;4998669;28;20125;-83
2022/07/09 13:03:57;;;;;;;4.70;2.13;;;;;;;;;;5015335;28;20057;-84
2022/07/09 13:06:32;;;;;;;3.67;2.17;;;;;;;;;;5035263;28;20060;-83
2022/07/09 13:08:57;;;;;;;3.33;2.20;;;;;;;;;;5050512;28;20056;-83
2022/07/09 13:11:23;;;;;;;3.58;2.42;;;;;;;;;;5051267;28;20056;-84
2022/07/09 13:13:50;;;;;;;3.88;2.30;;;;;;;;;;5050908;28;20049;-85
2022/07/09 13:16:15;;;;;;;5.05;2.15;;;;;;;;;;5038646;28;20579;-83
2022/07/09 13:18:41;;;;;;;5.07;3.30;;;;;;;;;;5050566;28;20055;-81
2022/07/09 13:21:06;;;;;;;5.20;2.55;;;;;;;;;;5051660;28;20024;-83
2022/07/09 13:23:32;;;;;;;3.28;2.75;;;;;;;;;;5034477;28;20068;-84
2022/07/09 13:25:57;;;;;;;5.05;3.20;;;;;;;;;;5036173;28;20154;-83
2022/07/09 13:28:23;;;;;;;4.50;2.70;;;;;;;;;;5033699;28;20048;-83
2022/07/09 13:30:48;;;;;;;4.82;2.85;;;;;;;;;;5050824;28;20025;-83
2022/07/09 13:33:14;;;;;;;3.55;2.80;;;;;;;;;;5050785;28;20071;-82
2022/07/09 13:35:40;;;;;;;4.95;3.42;;;;;;;;;;5051266;28;20017;-83
2022/07/09 13:38:05;;;;;;;4.55;3.28;;;;;;;;;;5052172;28;20029;-84
2022/07/09 13:40:30;;;;;;;3.30;2.80;;;;;;;;;;5052164;28;20044;-86
2022/07/09 13:42:56;;;;;;;3.55;2.80;;;;;;;;;;5023420;28;20183;-82
2022/07/09 13:45:22;;;;;;;4.43;3.38;;;;;;;;;;5032371;28;20021;-84
2022/07/09 13:47:47;;;;;;;4.07;2.88;;;;;;;;;;5031485;28;20037;-82
2022/07/09 13:50:13;;;;;;;4.75;2.83;;;;;;;;;;5032396;28;20021;-83
2022/07/09 13:52:38;;;;;;;3.60;3.28;;;;;;;;;;5032451;28;20048;-84
2022/07/09 13:55:04;;;;;;;3.97;3.30;;;;;;;;;;5033891;28;20027;-84
2022/07/09 13:57:29;;;;;;;6.22;2.90;;;;;;;;;;5035206;28;20087;-83
2022/07/09 13:59:55;;;;;;;4.32;2.65;;;;;;;;;;5036786;28;20035;-83
2022/07/09 14:02:20;;;;;;;8.35;3.33;;;;;;;;;;5036392;28;20487;-84
2022/07/09 14:04:47;;;;;;;4.75;3.13;;;;;;;;;;5036486;28;20035;-83
2022/07/09 14:07:13;;;;;;;4.60;3.35;;;;;;;;;;5035749;28;20040;-84
2022/07/09 14:09:38;;;;;;;11.15;3.25;;;;;;;;;;5036192;28;20109;-83
2022/07/09 14:12:04;;;;;;;8.90;3.45;;;;;;;;;;5036362;28;20033;-84
2022/07/09 14:14:29;;;;;;;6.72;3.33;;;;;;;;;;5034998;28;20108;-83
2022/07/09 14:16:55;;;;;;;4.85;3.60;;;;;;;;;;5046295;28;20060;-82
2022/07/09 14:19:20;;;;;;;5.10;3.30;;;;;;;;;;5041935;28;20510;-82
2022/07/09 14:21:46;;;;;;;5.22;3.20;;;;;;;;;;5053833;28;20033;-82
2022/07/09 14:24:11;;;;;;;7.93;3.40;;;;;;;;;;5053886;28;20032;-83
2022/07/09 14:26:37;;;;;;;3.85;3.20;;;;;;;;;;5055223;28;20041;-83
2022/07/09 14:29:02;;;;;;;4.10;3.17;;;;;;;;;;5054102;28;20537;-83
2022/07/09 14:31:28;;;;;;;6.55;3.50;;;;;;;;;;5054953;28;20519;-83
2022/07/09 14:33:56;;;;;;;3.85;3.45;;;;;;;;;;5051105;28;20043;-83
2022/07/09 14:36:22;;;;;;;7.68;3.90;;;;;;;;;;5035853;28;20043;-82